Time;durP1;ratioP1;P1;durP2;ratioP2;P2;SDS_P1;SDS_P2;PMS_P1;PMS_P2;Temp;Humidity;BMP_temperature;BMP_pressure;BME280_temperature;BME280_humidity;BME280_pressure;Samples;Min_cycle;Max_cycle;Signal;HPM_P1;HPM_P2
2023/09/11 00:01:23;;;;;;;4.57;3.42;;;21.90;85.80;;;;;;5071404;28;20045;-78
2023/09/11 00:03:50;;;;;;;5.07;3.67;;;21.90;85.80;;;;;;5073814;28;20047;-78
2023/09/11 00:06:16;;;;;;;4.30;3.20;;;21.90;85.80;;;;;;5072042;28;20045;-78
2023/09/11 00:08:42;;;;;;;4.65;3.53;;;21.90;85.90;;;;;;5073723;28;20044;-78
2023/09/11 00:11:08;;;;;;;4.20;3.38;;;21.90;86.00;;;;;;5073773;28;20407;-76
2023/09/11 00:13:33;;;;;;;4.72;3.65;;;21.90;86.00;;;;;;5053765;28;20032;-79
2023/09/11 00:15:59;;;;;;;4.88;3.50;;;21.80;86.00;;;;;;5073940;28;20074;-77
2023/09/11 00:18:25;;;;;;;4.25;3.28;;;21.90;86.00;;;;;;5070854;28;20043;-78
2023/09/11 00:20:51;;;;;;;4.85;3.30;;;21.90;86.10;;;;;;5053980;28;20048;-77
2023/09/11 00:23:17;;;;;;;7.88;4.13;;;21.80;86.00;;;;;;5074595;28;20064;-78
2023/09/11 00:25:43;;;;;;;4.38;3.47;;;21.80;86.10;;;;;;5054944;28;20515;-78
2023/09/11 00:28:09;;;;;;;4.00;3.15;;;21.80;86.20;;;;;;5054059;28;20067;-77
2023/09/11 00:30:38;;;;;;;4.18;3.17;;;21.80;86.30;;;;;;5055536;28;20048;-76
2023/09/11 00:33:04;;;;;;;4.15;2.97;;;21.80;86.40;;;;;;5073763;28;20547;-77
2023/09/11 00:35:30;;;;;;;5.07;3.85;;;21.80;86.30;;;;;;5074454;28;20397;-78
2023/09/11 00:37:55;;;;;;;4.72;3.60;;;21.70;86.30;;;;;;5075240;28;20119;-78
2023/09/11 00:40:21;;;;;;;4.40;3.20;;;21.70;86.30;;;;;;5073885;28;20498;-78
2023/09/11 00:42:47;;;;;;;3.72;2.55;;;21.60;86.40;;;;;;5073181;28;20056;-78
2023/09/11 00:45:12;;;;;;;5.70;3.45;;;21.60;86.40;;;;;;5073168;28;20037;-77
2023/09/11 00:47:40;;;;;;;4.75;3.70;;;21.60;86.50;;;;;;5073446;28;20135;-78
2023/09/11 00:50:08;;;;;;;4.07;3.10;;;21.50;86.50;;;;;;5071738;28;20062;-78
2023/09/11 00:52:34;;;;;;;5.20;3.40;;;21.50;86.70;;;;;;5073081;28;20067;-79
2023/09/11 00:55:00;;;;;;;2.92;2.55;;;21.40;86.70;;;;;;5070717;28;20064;-77
2023/09/11 00:57:26;;;;;;;5.03;3.53;;;21.50;86.80;;;;;;5069778;28;20437;-78
2023/09/11 00:59:52;;;;;;;4.50;3.53;;;21.40;86.70;;;;;;5071627;28;20045;-78
2023/09/11 01:02:20;;;;;;;4.90;3.47;;;21.40;86.80;;;;;;5070719;28;20040;-78
2023/09/11 01:04:46;;;;;;;4.63;3.47;;;21.40;87.00;;;;;;5072615;28;20056;-79
2023/09/11 01:07:13;;;;;;;4.03;3.13;;;21.30;86.90;;;;;;5070242;28;20048;-79
2023/09/11 01:09:40;;;;;;;4.47;3.15;;;21.40;87.00;;;;;;5069741;28;20137;-78
2023/09/11 01:12:06;;;;;;;4.07;2.97;;;21.30;86.90;;;;;;5054607;28;20136;-78
2023/09/11 01:14:33;;;;;;;3.63;2.80;;;21.30;87.00;;;;;;5072588;28;20067;-78
2023/09/11 01:17:13;;;;;;;5.25;3.50;;;21.30;87.00;;;;;;5070503;28;20032;-77
2023/09/11 01:20:08;;;;;;;3.60;2.70;;;21.30;87.00;;;;;;5072448;28;20036;-77
2023/09/11 01:23:13;;;;;;;5.03;3.25;;;21.30;87.00;;;;;;5055755;28;20055;-79
2023/09/11 01:26:18;;;;;;;4.22;2.90;;;21.30;87.10;;;;;;5049947;28;20050;-77
2023/09/11 01:29:09;;;;;;;3.90;3.10;;;21.30;87.10;;;;;;5068764;28;20047;-77
2023/09/11 01:31:36;;;;;;;4.75;3.50;;;21.30;87.10;;;;;;5071451;28;20037;-77
2023/09/11 01:34:04;;;;;;;3.28;2.50;;;21.30;87.10;;;;;;5053278;28;20386;-77
2023/09/11 01:36:30;;;;;;;5.05;3.50;;;21.20;87.00;;;;;;5072882;28;20446;-77
2023/09/11 01:38:56;;;;;;;4.20;3.17;;;21.20;87.10;;;;;;5072554;28;20127;-76
2023/09/11 01:41:30;;;;;;;4.75;3.50;;;21.20;87.20;;;;;;5072237;28;20056;-76
2023/09/11 01:43:59;;;;;;;3.40;2.67;;;21.10;87.20;;;;;;5072468;28;20123;-77
2023/09/11 01:46:27;;;;;;;3.67;2.80;;;21.10;87.30;;;;;;5071231;28;20040;-76
2023/09/11 01:48:54;;;;;;;4.50;3.25;;;21.00;87.40;;;;;;5071947;28;20052;-77
2023/09/11 01:51:21;;;;;;;4.03;2.92;;;21.00;87.50;;;;;;5072522;28;20036;-77
2023/09/11 01:53:48;;;;;;;3.63;2.75;;;21.00;87.50;;;;;;5072501;28;20486;-76
2023/09/11 01:56:15;;;;;;;5.55;3.85;;;21.00;87.50;;;;;;5072273;28;20043;-76
2023/09/11 01:58:42;;;;;;;4.45;3.25;;;21.00;87.50;;;;;;5071068;28;20117;-77
2023/09/11 02:01:08;;;;;;;3.80;3.03;;;21.00;87.50;;;;;;5072154;28;20052;-76
2023/09/11 02:03:34;;;;;;;4.63;3.47;;;21.00;87.50;;;;;;5072551;28;20047;-76
2023/09/11 02:06:00;;;;;;;3.63;2.92;;;21.00;87.50;;;;;;5072256;28;20037;-74
2023/09/11 02:08:26;;;;;;;4.63;3.47;;;21.00;87.60;;;;;;5070038;28;20036;-77
2023/09/11 02:10:53;;;;;;;5.25;3.25;;;21.00;87.60;;;;;;5069289;28;20500;-76
2023/09/11 02:13:20;;;;;;;4.18;2.90;;;20.90;87.60;;;;;;5069183;28;20067;-76
2023/09/11 02:15:45;;;;;;;3.78;2.85;;;21.00;87.60;;;;;;5072389;28;20094;-77
2023/09/11 02:18:11;;;;;;;3.63;3.03;;;20.90;87.70;;;;;;5072455;28;20402;-77
2023/09/11 02:20:37;;;;;;;4.50;3.17;;;21.00;87.60;;;;;;5069386;28;20040;-77
2023/09/11 02:23:02;;;;;;;4.50;3.25;;;20.90;87.70;;;;;;5068719;28;20040;-76
2023/09/11 02:25:28;;;;;;;4.50;3.40;;;20.90;87.70;;;;;;5072198;28;20057;-77
2023/09/11 02:27:54;;;;;;;4.10;3.30;;;20.80;87.70;;;;;;5072185;28;20071;-77
2023/09/11 02:30:20;;;;;;;5.00;3.50;;;20.90;87.80;;;;;;5071605;28;20123;-76
2023/09/11 02:32:45;;;;;;;5.32;3.60;;;20.80;87.80;;;;;;5069976;28;20038;-77
2023/09/11 02:35:11;;;;;;;4.50;3.38;;;20.80;87.90;;;;;;5072010;28;20082;-76
2023/09/11 02:37:37;;;;;;;4.13;3.08;;;20.80;87.90;;;;;;5068693;28;20097;-74
2023/09/11 02:40:04;;;;;;;4.53;3.08;;;20.80;87.90;;;;;;5072051;28;20045;-77
2023/09/11 02:42:29;;;;;;;4.97;3.47;;;20.80;88.60;;;;;;5072015;28;20468;-77
2023/09/11 02:44:55;;;;;;;3.80;3.15;;;20.80;87.90;;;;;;5069015;28;20127;-76
2023/09/11 02:47:21;;;;;;;4.10;3.30;;;20.70;87.80;;;;;;5068411;28;20502;-76
2023/09/11 02:49:46;;;;;;;6.90;3.58;;;20.80;87.90;;;;;;5069779;28;20462;-76
2023/09/11 02:52:12;;;;;;;4.72;3.63;;;20.70;88.50;;;;;;5071610;28;20040;-77
2023/09/11 02:54:38;;;;;;;4.88;3.55;;;20.70;87.90;;;;;;5071372;28;20045;-77
2023/09/11 02:57:04;;;;;;;4.47;3.42;;;20.70;88.00;;;;;;5069838;28;20076;-77
2023/09/11 02:59:34;;;;;;;4.90;3.55;;;20.70;88.00;;;;;;5069500;28;20040;-76
2023/09/11 03:02:01;;;;;;;4.82;3.58;;;20.70;88.10;;;;;;5071713;28;20032;-77
2023/09/11 03:04:26;;;;;;;5.55;3.78;;;20.70;88.10;;;;;;5071214;28;20043;-77
2023/09/11 03:06:52;;;;;;;7.07;3.70;;;20.60;88.10;;;;;;5071034;28;20041;-77
2023/09/11 03:09:18;;;;;;;4.95;3.67;;;20.60;88.20;;;;;;5069547;28;20049;-77
2023/09/11 03:11:43;;;;;;;4.93;3.63;;;20.60;88.20;;;;;;5052833;28;20092;-75
2023/09/11 03:14:11;;;;;;;4.22;3.42;;;20.50;88.30;;;;;;5051497;28;20493;-76
2023/09/11 03:16:43;;;;;;;5.38;3.47;;;20.50;88.30;;;;;;5067910;28;20040;-76
2023/09/11 03:19:10;;;;;;;6.05;3.83;;;20.50;88.40;;;;;;5071029;28;20177;-76
2023/09/11 03:21:36;;;;;;;5.05;3.72;;;20.50;88.30;;;;;;5072451;28;20044;-76
2023/09/11 03:24:02;;;;;;;5.15;3.38;;;20.50;88.40;;;;;;5055620;28;20071;-76
2023/09/11 03:26:28;;;;;;;4.40;3.20;;;20.40;88.40;;;;;;5054998;28;20040;-76
2023/09/11 03:28:53;;;;;;;6.13;3.70;;;20.40;88.40;;;;;;5068972;28;20043;-76
2023/09/11 03:31:19;;;;;;;5.00;3.70;;;20.40;88.50;;;;;;5055711;28;20063;-76
2023/09/11 03:33:45;;;;;;;5.82;3.95;;;20.30;88.50;;;;;;5071991;28;20049;-76
2023/09/11 03:36:16;;;;;;;5.20;3.85;;;20.30;88.50;;;;;;5054653;28;20045;-76
2023/09/11 03:38:42;;;;;;;4.70;3.10;;;20.30;88.60;;;;;;5073139;28;20045;-75
2023/09/11 03:41:09;;;;;;;4.72;3.42;;;20.30;88.60;;;;;;5073031;28;20521;-76
2023/09/11 03:43:35;;;;;;;5.65;3.33;;;20.30;88.70;;;;;;5072243;28;20794;-76
2023/09/11 03:46:01;;;;;;;4.95;3.42;;;20.30;88.70;;;;;;5071505;28;20410;-76
2023/09/11 03:48:27;;;;;;;4.75;3.42;;;20.30;88.60;;;;;;5071126;28;20071;-76
2023/09/11 03:50:53;;;;;;;4.43;3.13;;;20.30;88.50;;;;;;5074393;28;20059;-76
2023/09/11 03:53:19;;;;;;;4.40;3.40;;;20.40;88.60;;;;;;5071903;28;20494;-76
2023/09/11 03:55:45;;;;;;;4.18;3.28;;;20.40;88.60;;;;;;5071862;28;20068;-76
2023/09/11 03:58:11;;;;;;;4.38;3.25;;;20.30;88.50;;;;;;5074245;28;20492;-76
2023/09/11 04:00:36;;;;;;;4.80;3.08;;;20.30;88.50;;;;;;5055293;28;20875;-76
2023/09/11 04:03:03;;;;;;;3.97;2.85;;;20.20;88.50;;;;;;5074200;28;20521;-76
2023/09/11 04:05:29;;;;;;;4.57;3.33;;;20.20;88.60;;;;;;5073956;28;20033;-76
2023/09/11 04:07:55;;;;;;;3.97;3.13;;;20.20;88.70;;;;;;5073809;28;20040;-76
2023/09/11 04:10:21;;;;;;;4.55;3.50;;;20.20;88.70;;;;;;5071708;28;20039;-76
2023/09/11 04:12:47;;;;;;;4.50;3.20;;;20.20;88.80;;;;;;5054706;28;20123;-76
2023/09/11 04:15:12;;;;;;;4.32;3.13;;;20.10;88.80;;;;;;5055767;28;20040;-76
2023/09/11 04:17:38;;;;;;;4.82;3.53;;;20.10;88.90;;;;;;5074016;28;20048;-76
2023/09/11 04:20:05;;;;;;;5.70;3.88;;;20.10;88.90;;;;;;5071291;28;20036;-76
2023/09/11 04:22:31;;;;;;;4.45;3.50;;;20.10;88.90;;;;;;5070788;28;20060;-76
2023/09/11 04:24:56;;;;;;;3.88;2.85;;;20.00;88.80;;;;;;5073769;28;20552;-76
2023/09/11 04:27:22;;;;;;;3.58;2.78;;;20.10;88.90;;;;;;5073524;28;20032;-76
2023/09/11 04:29:48;;;;;;;5.03;3.40;;;20.10;89.00;;;;;;5074295;28;20045;-76
2023/09/11 04:32:14;;;;;;;5.07;3.50;;;20.10;89.00;;;;;;5073276;28;20127;-76
2023/09/11 04:34:39;;;;;;;3.95;2.50;;;20.10;89.00;;;;;;5054756;28;20182;-76
2023/09/11 04:37:05;;;;;;;4.28;2.97;;;20.00;88.90;;;;;;5071257;28;20045;-76
2023/09/11 04:39:31;;;;;;;4.35;3.42;;;20.10;89.00;;;;;;5073636;28;20080;-76
2023/09/11 04:41:57;;;;;;;4.32;3.13;;;20.00;88.90;;;;;;5073205;28;20040;-76
2023/09/11 04:44:22;;;;;;;4.15;3.13;;;20.10;89.00;;;;;;5073691;28;20037;-76
2023/09/11 04:46:48;;;;;;;4.28;3.03;;;20.00;89.00;;;;;;5073593;28;20039;-76
2023/09/11 04:49:14;;;;;;;4.28;3.08;;;20.00;89.00;;;;;;5073296;28;20402;-76
2023/09/11 04:51:39;;;;;;;5.70;3.47;;;20.00;89.00;;;;;;5071280;28;20040;-76
2023/09/11 04:54:05;;;;;;;4.38;3.22;;;20.00;89.00;;;;;;5073566;28;20032;-76
2023/09/11 04:56:31;;;;;;;5.35;3.88;;;20.00;89.00;;;;;;5073384;28;20560;-76
2023/09/11 04:58:56;;;;;;;4.88;3.47;;;20.00;89.00;;;;;;5071094;28;20103;-76
2023/09/11 05:01:22;;;;;;;4.85;3.47;;;20.00;89.00;;;;;;5070569;28;20119;-76
2023/09/11 05:03:48;;;;;;;4.28;2.60;;;20.00;89.00;;;;;;5073190;28;20041;-76
2023/09/11 05:06:15;;;;;;;4.72;3.17;;;20.00;89.10;;;;;;5073414;28;20497;-76
2023/09/11 05:08:41;;;;;;;6.35;3.75;;;20.00;89.10;;;;;;5073368;28;20067;-77
2023/09/11 05:11:07;;;;;;;4.72;3.67;;;20.00;89.10;;;;;;5070378;28;20127;-76
2023/09/11 05:13:32;;;;;;;4.55;3.17;;;19.90;89.10;;;;;;5071648;28;20071;-76
2023/09/11 05:15:58;;;;;;;5.32;3.88;;;20.00;89.20;;;;;;5072900;28;20393;-75
2023/09/11 05:18:24;;;;;;;4.15;3.35;;;19.90;89.20;;;;;;5073806;28;20064;-75
2023/09/11 05:20:50;;;;;;;3.70;2.95;;;19.90;89.20;;;;;;5071653;28;20060;-75
2023/09/11 05:23:17;;;;;;;4.93;3.78;;;19.90;89.20;;;;;;5071576;28;20123;-76
2023/09/11 05:25:44;;;;;;;5.65;3.97;;;19.90;89.20;;;;;;5072675;28;20045;-75
2023/09/11 05:28:10;;;;;;;5.40;3.90;;;19.90;89.20;;;;;;5072511;28;20044;-75
2023/09/11 05:30:37;;;;;;;5.43;3.97;;;19.90;89.30;;;;;;5067372;28;20047;-75
2023/09/11 05:33:04;;;;;;;5.18;3.83;;;19.90;89.30;;;;;;5072881;28;20033;-75
2023/09/11 05:35:31;;;;;;;5.40;3.70;;;19.90;89.30;;;;;;5053723;28;20367;-75
2023/09/11 05:37:57;;;;;;;4.90;3.33;;;19.90;89.30;;;;;;5072459;28;20041;-75
2023/09/11 05:40:23;;;;;;;5.25;3.33;;;19.90;89.30;;;;;;5069365;28;20131;-75
2023/09/11 05:42:49;;;;;;;4.40;2.83;;;19.90;89.20;;;;;;5072649;28;20127;-75
2023/09/11 05:45:15;;;;;;;3.92;2.80;;;19.90;89.30;;;;;;5069766;28;20470;-75
2023/09/11 05:47:41;;;;;;;4.38;3.08;;;19.90;89.20;;;;;;5072516;28;20044;-75
2023/09/11 05:50:07;;;;;;;4.43;2.90;;;19.90;89.20;;;;;;5072470;28;20041;-75
2023/09/11 05:52:34;;;;;;;3.95;3.13;;;19.90;89.10;;;;;;5072830;28;20091;-76
2023/09/11 05:54:59;;;;;;;4.72;3.25;;;20.00;89.20;;;;;;5072291;28;20032;-76
2023/09/11 05:57:25;;;;;;;4.32;3.00;;;20.00;89.20;;;;;;5072799;28;20028;-76
2023/09/11 05:59:51;;;;;;;4.72;3.10;;;20.00;89.10;;;;;;5070868;28;20041;-76
2023/09/11 06:02:17;;;;;;;4.25;2.97;;;20.10;89.10;;;;;;5070003;28;20090;-76
2023/09/11 06:04:42;;;;;;;5.20;3.40;;;20.10;89.10;;;;;;5072094;28;20394;-76
2023/09/11 06:07:09;;;;;;;4.35;3.05;;;20.10;89.10;;;;;;5070720;28;20028;-76
2023/09/11 06:09:35;;;;;;;4.13;2.88;;;20.10;89.10;;;;;;5070151;28;20049;-76
2023/09/11 06:12:00;;;;;;;4.53;2.83;;;20.10;89.10;;;;;;5071830;28;20040;-76
2023/09/11 06:14:26;;;;;;;3.17;2.38;;;20.10;89.10;;;;;;5069047;28;20064;-74
2023/09/11 06:16:52;;;;;;;3.42;2.42;;;20.20;89.10;;;;;;5070369;28;20139;-76
2023/09/11 06:19:17;;;;;;;4.13;2.90;;;20.20;89.00;;;;;;5052946;28;20045;-76
2023/09/11 06:21:44;;;;;;;3.60;2.85;;;20.30;89.00;;;;;;5069486;28;20486;-76
2023/09/11 06:24:10;;;;;;;4.07;2.83;;;20.30;89.00;;;;;;5071880;28;20040;-76
2023/09/11 06:26:36;;;;;;;4.85;2.90;;;20.30;88.90;;;;;;5072205;28;20070;-76
2023/09/11 06:29:02;;;;;;;4.30;3.10;;;20.30;88.90;;;;;;5072795;28;20475;-76
2023/09/11 06:31:28;;;;;;;4.60;2.92;;;20.40;88.90;;;;;;5072187;28;20046;-77
2023/09/11 06:33:54;;;;;;;4.28;3.08;;;20.40;88.90;;;;;;5071848;28;20060;-76
2023/09/11 06:36:20;;;;;;;3.42;2.70;;;20.40;89.40;;;;;;5069502;28;20075;-76
2023/09/11 06:38:45;;;;;;;4.10;2.75;;;20.40;88.70;;;;;;5072143;28;20040;-75
2023/09/11 06:41:11;;;;;;;3.92;2.78;;;20.50;88.80;;;;;;5071539;28;20079;-76
2023/09/11 06:43:37;;;;;;;3.75;2.65;;;20.50;88.70;;;;;;5071818;28;20127;-76
2023/09/11 06:46:03;;;;;;;3.97;2.92;;;20.50;88.60;;;;;;5072001;28;20091;-76
2023/09/11 06:48:29;;;;;;;3.75;2.92;;;20.60;88.60;;;;;;5050150;28;20087;-77
2023/09/11 06:50:55;;;;;;;3.38;2.55;;;20.60;88.60;;;;;;5070829;28;20066;-77
2023/09/11 06:53:20;;;;;;;3.20;2.40;;;20.70;88.60;;;;;;5069460;28;20044;-77
2023/09/11 06:55:47;;;;;;;3.40;2.50;;;20.70;89.10;;;;;;5068638;28;20516;-77
2023/09/11 06:58:13;;;;;;;3.58;2.70;;;20.80;88.40;;;;;;5079050;28;20056;-77
2023/09/11 07:00:40;;;;;;;4.40;2.95;;;20.90;88.40;;;;;;5075104;28;20520;-77
2023/09/11 07:03:06;;;;;;;3.80;2.83;;;20.90;88.20;;;;;;5072726;28;20045;-77
2023/09/11 07:05:32;;;;;;;3.40;2.50;;;21.00;88.00;;;;;;5075526;28;20044;-77
2023/09/11 07:07:58;;;;;;;3.83;2.65;;;21.10;87.80;;;;;;5074586;28;20067;-76
2023/09/11 07:10:25;;;;;;;3.65;2.40;;;21.20;87.70;;;;;;5075137;28;20478;-78
2023/09/11 07:12:50;;;;;;;3.80;2.40;;;21.30;87.50;;;;;;5055882;28;20494;-77
2023/09/11 07:15:17;;;;;;;4.40;3.00;;;21.40;87.30;;;;;;5071550;28;20029;-76
2023/09/11 07:17:44;;;;;;;4.60;3.00;;;21.30;87.00;;;;;;5075246;28;20032;-77
2023/09/11 07:20:12;;;;;;;3.50;2.53;;;21.50;86.80;;;;;;5074843;28;20036;-77
2023/09/11 07:22:38;;;;;;;3.20;2.47;;;21.70;86.50;;;;;;5072216;28;20408;-76
2023/09/11 07:25:04;;;;;;;4.22;2.80;;;21.70;86.10;;;;;;5071486;28;20052;-77
2023/09/11 07:27:33;;;;;;;4.25;2.90;;;21.80;85.90;;;;;;5075869;28;20048;-77
2023/09/11 07:30:00;;;;;;;4.00;2.80;;;21.90;85.80;;;;;;5075828;28;20047;-76
2023/09/11 07:32:46;;;;;;;3.58;2.47;;;21.90;85.60;;;;;;5074621;28;20044;-77
2023/09/11 07:35:11;;;;;;;3.60;2.40;;;22.00;85.40;;;;;;5057611;28;20131;-76
2023/09/11 07:37:40;;;;;;;4.07;2.63;;;22.00;85.40;;;;;;5072978;28;20148;-76
2023/09/11 07:40:07;;;;;;;4.85;3.13;;;21.80;85.40;;;;;;5074700;28;20131;-75
2023/09/11 07:42:32;;;;;;;4.18;2.85;;;22.00;85.50;;;;;;5073001;28;20048;-76
2023/09/11 07:44:58;;;;;;;4.68;3.20;;;22.00;85.40;;;;;;5074929;28;20047;-76
2023/09/11 07:47:24;;;;;;;5.30;3.78;;;22.10;85.30;;;;;;5074556;28;20127;-75
2023/09/11 07:49:49;;;;;;;5.43;3.22;;;22.10;85.20;;;;;;5040159;28;20105;-76
2023/09/11 07:52:30;;;;;;;5.50;3.50;;;22.20;85.10;;;;;;5072998;28;20044;-78
2023/09/11 07:54:57;;;;;;;5.28;3.30;;;22.20;84.90;;;;;;5074477;28;20040;-77
2023/09/11 07:57:24;;;;;;;5.78;3.55;;;22.30;84.90;;;;;;5074318;28;20040;-76
2023/09/11 07:59:50;;;;;;;6.63;3.70;;;22.30;84.90;;;;;;5072424;28;20039;-76
2023/09/11 08:02:16;;;;;;;4.00;2.75;;;22.30;84.70;;;;;;5071676;28;20119;-76
2023/09/11 08:04:42;;;;;;;4.38;3.00;;;22.40;84.60;;;;;;5072659;28;20390;-76
2023/09/11 08:07:08;;;;;;;4.60;3.20;;;22.50;84.50;;;;;;5054899;28;20048;-75
2023/09/11 08:09:34;;;;;;;4.45;2.88;;;22.50;84.40;;;;;;5073810;28;20514;-75
2023/09/11 08:12:00;;;;;;;3.75;2.60;;;22.60;84.50;;;;;;5071232;28;20036;-74
2023/09/11 08:14:26;;;;;;;3.50;2.60;;;22.70;84.10;;;;;;5074232;28;20126;-74
2023/09/11 08:16:52;;;;;;;3.58;2.83;;;22.70;84.10;;;;;;5073833;28;20099;-76
2023/09/11 08:19:17;;;;;;;3.80;2.70;;;22.70;83.90;;;;;;5073710;28;20040;-75
2023/09/11 08:21:43;;;;;;;4.18;2.70;;;22.90;84.00;;;;;;5070647;28;20049;-74
2023/09/11 08:24:09;;;;;;;3.25;2.47;;;22.90;83.80;;;;;;5055089;28;20498;-74
2023/09/11 08:26:34;;;;;;;3.30;2.58;;;22.90;83.70;;;;;;5071212;28;20072;-73
2023/09/11 08:29:02;;;;;;;3.90;2.95;;;23.00;83.70;;;;;;5073702;28;20041;-74
2023/09/11 08:31:28;;;;;;;4.82;3.25;;;23.10;83.50;;;;;;5056069;28;20040;-75
2023/09/11 08:33:55;;;;;;;4.75;3.00;;;23.20;83.30;;;;;;5072184;28;20363;-76
2023/09/11 08:36:21;;;;;;;4.00;2.97;;;23.40;83.10;;;;;;5071256;28;20044;-74
2023/09/11 08:38:47;;;;;;;4.10;2.70;;;23.50;82.90;;;;;;5073764;28;20084;-74
2023/09/11 08:41:14;;;;;;;3.85;2.65;;;23.50;82.70;;;;;;5073598;28;20071;-74
2023/09/11 08:43:40;;;;;;;4.32;2.95;;;23.60;82.50;;;;;;5071765;28;20075;-73
2023/09/11 08:46:08;;;;;;;5.18;3.33;;;23.70;82.50;;;;;;5070951;28;20375;-73
2023/09/11 08:48:38;;;;;;;4.53;3.05;;;23.80;82.40;;;;;;5053908;28;20576;-74
2023/09/11 08:51:11;;;;;;;3.42;2.67;;;23.90;82.20;;;;;;5068885;28;20036;-73
2023/09/11 08:53:39;;;;;;;4.57;2.90;;;24.00;82.10;;;;;;5072076;28;20119;-74
2023/09/11 08:56:05;;;;;;;5.05;2.80;;;24.10;82.00;;;;;;5070636;28;20043;-73
2023/09/11 08:58:34;;;;;;;4.93;3.17;;;24.10;81.90;;;;;;5073067;28;20037;-73
2023/09/11 09:01:01;;;;;;;5.25;3.55;;;24.10;81.90;;;;;;5071622;28;20081;-75
2023/09/11 09:03:29;;;;;;;3.38;2.78;;;24.20;81.80;;;;;;5073200;28;20123;-73
2023/09/11 09:05:56;;;;;;;4.30;2.80;;;24.30;81.60;;;;;;5070747;28;20101;-74
2023/09/11 09:08:22;;;;;;;4.07;2.90;;;24.40;81.70;;;;;;5070945;28;20043;-74
2023/09/11 09:10:48;;;;;;;2.97;2.33;;;24.30;81.60;;;;;;5072149;28;20409;-74
2023/09/11 09:13:14;;;;;;;5.13;2.80;;;24.40;81.70;;;;;;5073076;28;20123;-74
2023/09/11 09:15:42;;;;;;;3.85;2.92;;;24.50;81.70;;;;;;5072883;28;20451;-74
2023/09/11 09:18:08;;;;;;;4.60;3.33;;;24.60;81.60;;;;;;5072816;28;20047;-74
2023/09/11 09:20:34;;;;;;;3.80;2.70;;;24.60;82.20;;;;;;5072451;28;20090;-74
2023/09/11 09:23:01;;;;;;;4.55;3.03;;;24.60;81.50;;;;;;5071089;28;20040;-75
2023/09/11 09:25:29;;;;;;;3.95;2.78;;;24.70;81.40;;;;;;5073316;28;20044;-75
2023/09/11 09:27:57;;;;;;;4.32;3.03;;;24.70;81.30;;;;;;5070803;28;20044;-74
2023/09/11 09:30:27;;;;;;;3.90;2.85;;;24.70;81.30;;;;;;5072803;28;20038;-74
2023/09/11 09:32:54;;;;;;;3.15;2.42;;;24.80;81.30;;;;;;5068542;28;20047;-74
2023/09/11 09:35:21;;;;;;;3.58;2.50;;;24.80;81.20;;;;;;5071290;28;20048;-74
2023/09/11 09:37:52;;;;;;;4.75;3.25;;;24.80;81.30;;;;;;5071460;28;20075;-75
2023/09/11 09:40:35;;;;;;;3.28;2.60;;;24.90;81.30;;;;;;5071129;28;20040;-75
2023/09/11 09:43:04;;;;;;;3.55;2.53;;;24.90;81.10;;;;;;5072282;28;20048;-76
2023/09/11 09:45:39;;;;;;;3.95;2.75;;;24.90;81.10;;;;;;5072418;28;20557;-74
2023/09/11 09:48:21;;;;;;;4.28;2.85;;;24.80;81.00;;;;;;5072278;28;20068;-74
2023/09/11 09:50:52;;;;;;;3.15;2.30;;;24.70;81.10;;;;;;5071597;28;20083;-73
2023/09/11 09:53:41;;;;;;;2.78;2.30;;;24.90;81.20;;;;;;5072189;28;20089;-74
2023/09/11 09:56:09;;;;;;;3.83;2.70;;;24.90;81.20;;;;;;5067014;28;20044;-73
2023/09/11 09:58:39;;;;;;;3.70;2.67;;;24.90;81.20;;;;;;5053986;28;20411;-74
2023/09/11 10:01:08;;;;;;;2.88;2.25;;;24.90;81.10;;;;;;5072338;28;20044;-74
2023/09/11 10:03:42;;;;;;;4.40;2.80;;;25.00;81.00;;;;;;5072310;28;20086;-73
2023/09/11 10:06:10;;;;;;;2.95;2.28;;;25.10;80.90;;;;;;5067687;28;20045;-74
2023/09/11 10:08:36;;;;;;;4.28;2.60;;;25.10;80.70;;;;;;5071948;28;20036;-74
2023/09/11 10:11:02;;;;;;;2.38;1.98;;;25.10;80.60;;;;;;5070024;28;20040;-74
2023/09/11 10:13:32;;;;;;;2.40;1.90;;;25.20;80.60;;;;;;5072049;28;20044;-73
2023/09/11 10:15:58;;;;;;;2.97;2.05;;;25.10;80.50;;;;;;5070447;28;20047;-73
2023/09/11 10:18:24;;;;;;;2.92;2.17;;;25.10;80.30;;;;;;5072391;28;20106;-73
2023/09/11 10:20:51;;;;;;;4.43;2.28;;;25.20;80.50;;;;;;5072505;28;20052;-73
2023/09/11 10:23:17;;;;;;;2.97;2.25;;;25.20;80.40;;;;;;5069646;28;20051;-73
2023/09/11 10:25:46;;;;;;;3.67;2.50;;;25.20;80.30;;;;;;5069089;28;20045;-73
2023/09/11 10:28:22;;;;;;;3.45;2.47;;;25.20;80.10;;;;;;5070593;28;20544;-73
2023/09/11 10:30:57;;;;;;;4.18;2.25;;;25.30;80.10;;;;;;5072328;28;20097;-73
2023/09/11 10:33:26;;;;;;;3.22;2.17;;;25.30;79.90;;;;;;5075887;28;20064;-72
2023/09/11 10:35:57;;;;;;;3.17;2.15;;;25.30;79.80;;;;;;5075393;28;20036;-73
2023/09/11 10:38:23;;;;;;;2.35;1.90;;;25.40;79.60;;;;;;5075590;28;20075;-75
2023/09/11 10:40:51;;;;;;;2.65;2.20;;;25.40;79.60;;;;;;5073149;28;20028;-73
2023/09/11 10:43:16;;;;;;;3.92;2.20;;;25.40;79.60;;;;;;5075911;28;20075;-73
2023/09/11 10:45:42;;;;;;;3.28;2.05;;;25.40;79.40;;;;;;5072123;28;20076;-74
2023/09/11 10:48:28;;;;;;;2.20;1.90;;;25.40;79.30;;;;;;5075022;28;20561;-74
2023/09/11 10:50:56;;;;;;;2.60;1.95;;;25.40;79.20;;;;;;5075041;28;20144;-74
2023/09/11 10:53:27;;;;;;;2.92;2.20;;;25.50;79.10;;;;;;5075169;28;20068;-74
2023/09/11 10:55:53;;;;;;;;;;;25.50;78.90;;;;;;5075771;28;20182;-76
2023/09/11 10:58:18;;;;;;;3.25;1.73;;;25.60;78.90;;;;;;5075715;28;20350;-76
2023/09/11 11:00:44;;;;;;;2.72;1.90;;;25.60;78.70;;;;;;5055512;28;20040;-75
2023/09/11 11:03:14;;;;;;;2.88;1.95;;;25.60;78.50;;;;;;5073167;28;20036;-73
2023/09/11 11:05:40;;;;;;;3.25;2.15;;;25.70;78.30;;;;;;5074925;28;20041;-73
2023/09/11 11:08:08;;;;;;;2.40;2.00;;;25.80;78.20;;;;;;5074763;28;20060;-73
2023/09/11 11:10:34;;;;;;;2.60;1.92;;;25.80;78.00;;;;;;5072748;28;20131;-72
2023/09/11 11:13:08;;;;;;;2.35;1.90;;;25.90;78.00;;;;;;5071634;28;20582;-74
2023/09/11 11:15:34;;;;;;;3.45;2.05;;;25.90;77.80;;;;;;5070624;28;20494;-74
2023/09/11 11:18:26;;;;;;;2.83;2.00;;;25.90;77.70;;;;;;5075100;28;20036;-74
2023/09/11 11:21:09;;;;;;;2.40;1.80;;;26.00;77.50;;;;;;5073595;28;20053;-73
2023/09/11 11:23:52;;;;;;;2.83;2.15;;;26.10;77.30;;;;;;5073329;28;20486;-73
2023/09/11 11:26:18;;;;;;;3.30;2.58;;;26.10;77.00;;;;;;5070151;28;20033;-73
2023/09/11 11:28:45;;;;;;;3.33;2.45;;;26.20;76.80;;;;;;5074531;28;20094;-74
2023/09/11 11:31:18;;;;;;;3.58;2.03;;;26.30;76.50;;;;;;5074585;28;20049;-73
2023/09/11 11:33:46;;;;;;;3.45;2.58;;;26.40;76.20;;;;;;5057097;28;20060;-73
2023/09/11 11:36:12;;;;;;;3.03;2.33;;;26.50;76.10;;;;;;5072937;28;20044;-74
2023/09/11 11:38:39;;;;;;;2.83;2.00;;;26.50;75.90;;;;;;5055229;28;20041;-75
2023/09/11 11:41:08;;;;;;;2.60;2.00;;;26.60;75.90;;;;;;5072464;28;20051;-76
2023/09/11 11:43:34;;;;;;;2.53;2.08;;;26.70;75.90;;;;;;5051766;28;20040;-76
2023/09/11 11:46:00;;;;;;;3.33;2.10;;;26.70;75.90;;;;;;5074885;28;20048;-75
2023/09/11 11:48:27;;;;;;;3.10;2.13;;;26.70;75.80;;;;;;5072034;28;20048;-75
2023/09/11 11:50:54;;;;;;;3.38;2.25;;;26.70;75.70;;;;;;5054955;28;20037;-74
2023/09/11 11:53:22;;;;;;;2.45;2.10;;;26.70;75.50;;;;;;5071206;28;20052;-76
2023/09/11 11:55:49;;;;;;;3.47;2.28;;;26.80;75.60;;;;;;5074145;28;20033;-76
2023/09/11 11:58:38;;;;;;;2.67;1.95;;;26.80;75.50;;;;;;5039096;28;20047;-76
2023/09/11 12:01:07;;;;;;;2.78;2.05;;;26.90;75.50;;;;;;5054088;28;20047;-77
2023/09/11 12:03:45;;;;;;;2.95;2.30;;;26.90;75.50;;;;;;5039504;28;20043;-76
2023/09/11 12:06:12;;;;;;;2.58;1.75;;;26.80;75.40;;;;;;5069908;28;20053;-74
2023/09/11 12:08:38;;;;;;;2.35;1.77;;;26.90;75.50;;;;;;5054015;28;20083;-74
2023/09/11 12:11:07;;;;;;;3.03;2.25;;;27.00;75.30;;;;;;5074483;28;20484;-75
2023/09/11 12:13:33;;;;;;;2.22;1.80;;;27.00;75.20;;;;;;5072339;28;20047;-74
2023/09/11 12:16:00;;;;;;;2.20;1.83;;;27.10;75.20;;;;;;5071274;28;20055;-74
2023/09/11 12:18:28;;;;;;;3.03;1.75;;;27.10;75.10;;;;;;5073719;28;20090;-74
2023/09/11 12:21:00;;;;;;;2.58;2.15;;;27.10;75.60;;;;;;5071707;28;20048;-74
2023/09/11 12:23:27;;;;;;;3.35;2.22;;;27.10;74.90;;;;;;5071997;28;20051;-74
2023/09/11 12:25:53;;;;;;;3.08;2.25;;;27.20;74.90;;;;;;5073620;28;20094;-74
2023/09/11 12:28:21;;;;;;;3.53;2.30;;;27.20;74.80;;;;;;5071720;28;20053;-74
2023/09/11 12:30:48;;;;;;;3.20;2.22;;;27.30;74.70;;;;;;5073898;28;20048;-74
2023/09/11 12:33:16;;;;;;;3.55;2.30;;;27.30;74.60;;;;;;5073596;28;20047;-75
2023/09/11 12:35:43;;;;;;;3.28;2.40;;;27.40;74.60;;;;;;5071577;28;20029;-75
2023/09/11 12:38:11;;;;;;;2.67;2.25;;;27.40;74.30;;;;;;5055178;28;20075;-75
2023/09/11 12:40:37;;;;;;;3.35;2.40;;;27.50;74.10;;;;;;5071956;28;20573;-75
2023/09/11 12:43:04;;;;;;;3.30;2.20;;;27.60;74.00;;;;;;5073377;28;20052;-75
2023/09/11 12:45:30;;;;;;;2.75;2.10;;;27.70;74.00;;;;;;5073451;28;20048;-75
2023/09/11 12:47:56;;;;;;;2.95;2.25;;;27.70;73.90;;;;;;5073203;28;20041;-74
2023/09/11 12:50:21;;;;;;;2.78;2.33;;;27.70;73.80;;;;;;5073435;28;20079;-73